Time;durP1;ratioP1;P1;durP2;ratioP2;P2;SDS_P1;SDS_P2;PMS_P1;PMS_P2;Temp;Humidity;BMP_temperature;BMP_pressure;BME280_temperature;BME280_humidity;BME280_pressure;Samples;Min_cycle;Max_cycle;Signal;HPM_P1;HPM_P2
2022/05/17 00:00:57;0.00;0.00;0.62;0.00;0.00;0.62;6.57;5.07;;;27.10;34.00;;;;;;2243831;61;20377;-59
2022/05/17 00:03:44;0.00;0.00;0.62;0.00;0.00;0.62;6.10;5.37;;;27.10;34.10;;;;;;2244686;61;20373;-68
2022/05/17 00:06:29;0.00;0.00;0.62;0.00;0.00;0.62;8.33;5.90;;;27.20;34.20;;;;;;2244676;61;20420;-61
2022/05/17 00:09:17;0.00;0.00;0.62;0.00;0.00;0.62;6.93;6.23;;;27.10;34.20;;;;;;2244792;61;20449;-59
2022/05/17 00:12:04;0.00;0.00;0.62;0.00;0.00;0.62;6.80;6.00;;;27.10;34.30;;;;;;2244357;61;20364;-66
2022/05/17 00:14:50;0.00;0.00;0.62;0.00;0.00;0.62;8.67;7.17;;;27.10;34.30;;;;;;2244207;61;20434;-62
2022/05/17 00:17:36;0.00;0.00;0.62;0.00;0.00;0.62;7.70;6.27;;;27.10;34.50;;;;;;2244716;61;20380;-62
2022/05/17 00:20:21;0.00;0.00;0.62;0.00;0.00;0.62;8.83;7.00;;;27.10;34.50;;;;;;2244338;61;20449;-62
2022/05/17 00:23:07;0.00;0.00;0.62;0.00;0.00;0.62;6.20;5.60;;;27.10;34.40;;;;;;2244454;61;20799;-59
2022/05/17 00:25:53;0.00;0.00;0.62;0.00;0.00;0.62;7.63;6.70;;;27.10;34.40;;;;;;2244926;61;20476;-58
2022/05/17 00:28:38;0.00;0.00;0.62;0.00;0.00;0.62;7.83;6.97;;;27.10;34.40;;;;;;2248318;61;20467;-63
2022/05/17 00:31:24;0.00;0.00;0.62;0.00;0.00;0.62;8.97;8.00;;;27.10;34.50;;;;;;2248310;61;20422;-55
2022/05/17 00:34:09;0.00;0.00;0.62;0.00;0.00;0.62;10.30;8.10;;;27.10;34.70;;;;;;2248467;61;20456;-61
2022/05/17 00:36:53;0.00;0.00;0.62;0.00;0.00;0.62;10.90;9.90;;;27.10;34.90;;;;;;2248471;61;20435;-61
2022/05/17 00:39:39;0.00;0.00;0.62;0.00;0.00;0.62;10.53;8.10;;;27.00;34.90;;;;;;2248869;61;20492;-56
2022/05/17 00:42:23;0.00;0.00;0.62;0.00;0.00;0.62;10.50;9.50;;;27.00;35.10;;;;;;2248080;61;20414;-57
2022/05/17 00:45:10;0.00;0.00;0.62;0.00;0.00;0.62;10.70;8.30;;;26.90;35.20;;;;;;2248301;61;20444;-62
2022/05/17 00:48:04;0.00;0.00;0.62;0.00;0.00;0.62;11.23;9.77;;;26.90;35.40;;;;;;2248670;61;20368;-60
2022/05/17 00:50:52;0.00;0.00;0.62;0.00;0.00;0.62;10.33;7.40;;;26.80;35.40;;;;;;2247993;61;20411;-56
2022/05/17 00:53:38;0.00;0.00;0.62;0.00;0.00;0.62;11.90;8.50;;;26.80;35.50;;;;;;2248549;61;20861;-58
2022/05/17 00:56:23;0.00;0.00;0.62;0.00;0.00;0.62;11.50;9.07;;;26.70;35.50;;;;;;2248554;61;20485;-60
2022/05/17 00:59:09;0.00;0.00;0.62;0.00;0.00;0.62;9.40;7.77;;;26.70;35.60;;;;;;2248413;61;20367;-62
2022/05/17 01:01:54;0.00;0.00;0.62;0.00;0.00;0.62;9.63;8.63;;;26.60;35.70;;;;;;2248202;61;20419;-58
2022/05/17 01:04:41;0.00;0.00;0.62;0.00;0.00;0.62;12.43;9.57;;;26.60;35.80;;;;;;2248716;61;20425;-58
2022/05/17 01:07:38;0.00;0.00;0.62;0.00;0.00;0.62;10.07;9.00;;;26.60;35.90;;;;;;2248626;61;20410;-60
2022/05/17 01:10:25;0.00;0.00;0.62;0.00;0.00;0.62;10.73;9.63;;;26.50;35.90;;;;;;2248245;61;20363;-59
2022/05/17 01:16:14;0.00;0.00;0.62;0.00;0.00;0.62;12.30;11.00;;;26.40;36.00;;;;;;2248775;61;20391;-59
2022/05/17 01:19:00;0.00;0.00;0.62;0.00;0.00;0.62;11.83;10.37;;;26.40;36.20;;;;;;2248319;61;20834;-60
2022/05/17 01:21:46;0.00;0.00;0.62;0.00;0.00;0.62;10.80;9.73;;;26.40;36.30;;;;;;2247395;61;20452;-61
2022/05/17 01:24:30;0.00;0.00;0.62;0.00;0.00;0.62;11.03;9.93;;;26.30;36.30;;;;;;2248764;61;20391;-64
2022/05/17 01:27:22;0.00;0.00;0.62;0.00;0.00;0.62;11.67;10.30;;;26.30;36.40;;;;;;2248408;61;20909;-58
2022/05/17 01:30:15;0.00;0.00;0.62;0.00;0.00;0.62;12.00;9.83;;;26.20;37.10;;;;;;2248460;61;20371;-58
2022/05/17 01:33:00;0.00;0.00;0.62;0.00;0.00;0.62;11.63;10.33;;;26.20;36.40;;;;;;2248259;61;20997;-62
2022/05/17 01:35:45;0.00;0.00;0.62;0.00;0.00;0.62;11.17;10.10;;;26.20;36.40;;;;;;2248439;61;20427;-57
2022/05/17 01:38:31;0.00;0.00;0.62;0.00;0.00;0.62;11.50;8.10;;;26.20;36.50;;;;;;2248720;61;20371;-60
2022/05/17 01:41:17;0.00;0.00;0.62;0.00;0.00;0.62;10.40;8.50;;;26.20;36.50;;;;;;2248003;61;20420;-60
2022/05/17 01:44:02;0.00;0.00;0.62;0.00;0.00;0.62;9.67;8.70;;;26.20;36.50;;;;;;2248401;61;20392;-60
2022/05/17 01:46:47;0.00;0.00;0.62;0.00;0.00;0.62;6.83;6.23;;;26.10;36.50;;;;;;2248626;61;20555;-58
2022/05/17 01:49:32;0.00;0.00;0.62;0.00;0.00;0.62;8.23;6.60;;;26.10;36.40;;;;;;2248505;61;20911;-61
2022/05/17 01:52:16;0.00;0.00;0.62;0.00;0.00;0.62;7.60;6.60;;;26.20;36.30;;;;;;2248351;61;20945;-64
2022/05/17 01:55:02;0.00;0.00;0.62;0.00;0.00;0.62;10.83;8.23;;;26.20;36.30;;;;;;2248198;61;20415;-61
2022/05/17 01:57:47;0.00;0.00;0.62;0.00;0.00;0.62;9.67;8.77;;;26.20;36.40;;;;;;2248616;61;20371;-58
2022/05/17 02:00:31;0.00;0.00;0.62;0.00;0.00;0.62;12.20;9.80;;;26.20;36.50;;;;;;2247888;61;20464;-59
2022/05/17 02:03:16;0.00;0.00;0.62;0.00;0.00;0.62;8.37;7.57;;;26.10;36.50;;;;;;2248138;61;20463;-60
2022/05/17 02:06:02;0.00;0.00;0.62;0.00;0.00;0.62;14.30;9.93;;;26.10;36.50;;;;;;2248348;61;20383;-59
2022/05/17 02:08:46;0.00;0.00;0.62;0.00;0.00;0.62;9.90;8.90;;;26.10;36.50;;;;;;2248581;61;20939;-55
2022/05/17 02:11:32;0.00;0.00;0.62;0.00;0.00;0.62;11.27;8.63;;;26.10;36.50;;;;;;2247644;61;20395;-57
2022/05/17 02:14:17;0.00;0.00;0.62;0.00;0.00;0.62;10.90;9.80;;;26.10;36.50;;;;;;2247881;61;20395;-60
2022/05/17 02:17:02;0.00;0.00;0.62;0.00;0.00;0.62;12.50;8.87;;;26.00;36.80;;;;;;2248037;61;20752;-60
2022/05/17 02:19:50;0.00;0.00;0.62;0.00;0.00;0.62;9.03;8.13;;;26.00;36.50;;;;;;2248229;61;20807;-58
2022/05/17 02:22:35;0.00;0.00;0.62;0.00;0.00;0.62;9.10;8.27;;;26.00;36.40;;;;;;2247548;61;20371;-59
2022/05/17 02:25:20;0.00;0.00;0.62;0.00;0.00;0.62;9.57;6.80;;;26.00;36.30;;;;;;2248165;61;20543;-59
2022/05/17 02:28:08;0.00;0.00;0.62;0.00;0.00;0.62;10.10;7.60;;;26.00;36.30;;;;;;2247964;61;20371;-59
2022/05/17 02:30:53;0.00;0.00;0.62;0.00;0.00;0.62;9.33;8.43;;;26.00;36.30;;;;;;2248207;61;20371;-56
2022/05/17 02:33:37;0.00;0.00;0.62;0.00;0.00;0.62;9.73;8.73;;;26.00;36.20;;;;;;2248033;61;20388;-58
2022/05/17 02:36:22;0.00;0.00;0.62;0.00;0.00;0.62;8.40;7.57;;;26.00;36.20;;;;;;2248270;61;20367;-62
2022/05/17 02:39:06;0.00;0.00;0.62;0.00;0.00;0.62;9.97;8.97;;;26.10;36.20;;;;;;2248482;61;20774;-58
2022/05/17 02:41:51;0.00;0.00;0.62;0.00;0.00;0.62;11.43;10.23;;;26.10;36.90;;;;;;2247812;61;20790;-55
2022/05/17 02:44:37;0.00;0.00;0.62;0.00;0.00;0.62;9.80;8.80;;;26.00;36.20;;;;;;2248552;61;20902;-56
2022/05/17 02:47:22;0.00;0.00;0.62;0.00;0.00;0.62;8.13;7.33;;;26.00;36.20;;;;;;2248469;61;20372;-58
2022/05/17 02:50:09;0.00;0.00;0.62;0.00;0.00;0.62;11.00;8.80;;;26.00;36.20;;;;;;2248110;61;20384;-59
2022/05/17 02:52:54;0.00;0.00;0.62;0.00;0.00;0.62;7.70;6.90;;;26.00;36.30;;;;;;2248543;61;20390;-57
2022/05/17 02:55:38;0.00;0.00;0.62;0.00;0.00;0.62;10.60;8.37;;;26.00;36.20;;;;;;2248110;61;20439;-59
2022/05/17 02:58:22;0.00;0.00;0.62;0.00;0.00;0.62;8.30;7.50;;;26.00;36.30;;;;;;2248150;61;20406;-55
2022/05/17 03:01:09;0.00;0.00;0.62;0.00;0.00;0.62;9.43;8.43;;;26.00;36.30;;;;;;2243520;61;20372;-60
2022/05/17 03:03:53;0.00;0.00;0.62;0.00;0.00;0.62;12.90;9.17;;;26.00;36.40;;;;;;2244155;61;20419;-59
2022/05/17 03:06:38;0.00;0.00;0.62;0.00;0.00;0.62;10.20;9.30;;;26.00;36.30;;;;;;2244521;61;20368;-59
2022/05/17 03:09:23;0.00;0.00;0.62;0.00;0.00;0.62;10.77;9.70;;;26.00;36.30;;;;;;2244165;61;20465;-58
2022/05/17 03:12:10;0.00;0.00;0.62;0.00;0.00;0.62;13.00;10.27;;;26.00;36.50;;;;;;2244046;61;20400;-60
2022/05/17 03:14:54;0.00;0.00;0.62;0.00;0.00;0.62;11.43;10.43;;;25.90;36.40;;;;;;2244388;61;20813;-58
2022/05/17 03:17:40;0.00;0.00;0.62;0.00;0.00;0.62;12.73;9.73;;;25.90;36.40;;;;;;2244232;61;20894;-60
2022/05/17 03:20:25;0.00;0.00;0.62;0.00;0.00;0.62;9.80;8.17;;;25.80;36.50;;;;;;2243615;61;20424;-59
2022/05/17 03:23:09;0.00;0.00;0.62;0.00;0.00;0.62;11.07;7.47;;;25.80;36.50;;;;;;2244299;61;20435;-58
2022/05/17 03:25:54;0.00;0.00;0.62;0.00;0.00;0.62;12.00;9.60;;;25.80;36.60;;;;;;2244244;61;20483;-56
2022/05/17 03:28:38;0.00;0.00;0.62;0.00;0.00;0.62;11.23;9.13;;;25.70;36.60;;;;;;2244205;61;20925;-59
2022/05/17 03:31:23;0.00;0.00;0.62;0.00;0.00;0.62;10.33;7.50;;;25.70;36.60;;;;;;2243655;61;20372;-57
2022/05/17 03:34:09;0.00;0.00;0.62;0.00;0.00;0.62;11.03;7.80;;;25.60;36.50;;;;;;2244118;61;20388;-60
2022/05/17 03:36:54;0.00;0.00;0.62;0.00;0.00;0.62;9.73;7.80;;;25.70;36.70;;;;;;2244319;61;20369;-61
2022/05/17 03:39:38;0.00;0.00;0.62;0.00;0.00;0.62;8.63;7.73;;;25.70;36.70;;;;;;2244789;61;20897;-58
2022/05/17 03:42:23;0.00;0.00;0.62;0.00;0.00;0.62;9.87;7.37;;;25.60;36.70;;;;;;2244211;61;20364;-58
2022/05/17 03:45:09;0.00;0.00;0.62;0.00;0.00;0.62;8.23;7.13;;;25.60;36.70;;;;;;2244823;61;20920;-58
2022/05/17 03:47:53;0.00;0.00;0.62;0.00;0.00;0.62;9.10;6.90;;;25.50;36.70;;;;;;2244836;61;20368;-58
2022/05/17 03:50:39;0.00;0.00;0.62;0.00;0.00;0.62;5.73;5.13;;;25.50;36.70;;;;;;2244687;61;20424;-57
2022/05/17 03:53:24;0.00;0.00;0.62;0.00;0.00;0.62;8.80;6.60;;;25.50;36.60;;;;;;2244565;61;20368;-59
2022/05/17 03:56:09;0.00;0.00;0.62;0.00;0.00;0.62;7.50;6.70;;;25.50;36.60;;;;;;2244933;61;20521;-59
2022/05/17 03:58:53;0.00;0.00;0.62;0.00;0.00;0.62;9.07;6.73;;;25.60;36.60;;;;;;2244852;61;20512;-54
2022/05/17 04:01:38;0.00;0.00;0.62;0.00;0.00;0.62;11.00;7.70;;;25.60;36.60;;;;;;2244271;61;20432;-61
2022/05/17 04:04:23;0.00;0.00;0.62;0.00;0.00;0.62;8.97;7.73;;;25.50;36.60;;;;;;2244424;61;20864;-59
2022/05/17 04:07:09;0.00;0.00;0.62;0.00;0.00;0.62;10.17;7.30;;;25.50;36.60;;;;;;2245003;61;20419;-55
2022/05/17 04:09:53;0.00;0.00;0.62;0.00;0.00;0.62;12.20;7.20;;;25.50;36.70;;;;;;2246779;61;20374;-54
2022/05/17 04:12:38;0.00;0.00;0.62;0.00;0.00;0.62;9.83;8.00;;;25.50;36.70;;;;;;2244409;61;20437;-56
2022/05/17 04:15:23;0.00;0.00;0.62;0.00;0.00;0.62;12.03;7.63;;;25.50;36.70;;;;;;2244535;61;20394;-60
2022/05/17 04:18:08;0.00;0.00;0.62;0.00;0.00;0.62;8.17;6.67;;;25.40;37.40;;;;;;2244812;61;20433;-58
2022/05/17 04:20:58;0.00;0.00;0.62;0.00;0.00;0.62;7.23;6.53;;;25.40;36.80;;;;;;2244213;61;20420;-61
2022/05/17 04:23:44;0.00;0.00;0.62;0.00;0.00;0.62;10.50;7.20;;;25.40;36.80;;;;;;2244790;61;20380;-60
2022/05/17 04:26:29;0.00;0.00;0.62;0.00;0.00;0.62;7.67;6.83;;;25.40;36.90;;;;;;2244408;61;20512;-57
2022/05/17 04:29:14;0.00;0.00;0.62;0.00;0.00;0.62;6.90;6.20;;;25.30;36.90;;;;;;2244911;61;20337;-60
2022/05/17 04:31:59;0.00;0.00;0.62;0.00;0.00;0.62;11.23;7.23;;;25.30;36.90;;;;;;2244351;61;20372;-58
2022/05/17 04:34:43;0.00;0.00;0.62;0.00;0.00;0.62;13.40;7.20;;;25.30;37.00;;;;;;2244498;61;20392;-58
2022/05/17 04:37:28;0.00;0.00;0.62;0.00;0.00;0.62;6.90;6.13;;;25.30;37.00;;;;;;2244570;61;20788;-59
2022/05/17 04:40:14;0.00;0.00;0.62;0.00;0.00;0.62;8.47;6.50;;;25.30;37.00;;;;;;2244539;61;20389;-60
2022/05/17 04:42:59;0.00;0.00;0.62;0.00;0.00;0.62;9.03;7.27;;;25.30;37.00;;;;;;2244857;61;20775;-60
2022/05/17 04:45:45;0.00;0.00;0.62;0.00;0.00;0.62;9.80;7.10;;;25.20;36.90;;;;;;2244713;61;20388;-59
2022/05/17 04:48:30;0.00;0.00;0.62;0.00;0.00;0.62;7.50;6.80;;;25.20;37.00;;;;;;2244309;61;21106;-55
2022/05/17 04:51:14;0.00;0.00;0.62;0.00;0.00;0.62;12.57;7.63;;;25.20;37.10;;;;;;2244625;61;20913;-59
2022/05/17 04:54:00;0.00;0.00;0.62;0.00;0.00;0.62;12.40;8.27;;;25.20;37.80;;;;;;2249485;61;20388;-59
2022/05/17 04:56:46;0.00;0.00;0.62;0.00;0.00;0.62;9.90;7.10;;;25.20;37.10;;;;;;2244785;61;20404;-59
2022/05/17 04:59:30;0.00;0.00;0.62;0.00;0.00;0.62;9.50;7.40;;;25.20;37.20;;;;;;2244871;61;20512;-57
2022/05/17 05:02:15;0.00;0.00;0.62;0.00;0.00;0.62;9.47;6.57;;;25.20;37.20;;;;;;2244221;61;20392;-64
2022/05/17 05:04:59;0.00;0.00;0.62;0.00;0.00;0.62;10.57;7.87;;;25.10;37.10;;;;;;2249803;61;20392;-59
2022/05/17 05:07:45;0.00;0.00;0.62;0.00;0.00;0.62;7.70;6.20;;;25.10;37.20;;;;;;2244731;61;20697;-59
2022/05/17 05:10:30;0.00;0.00;0.62;0.00;0.00;0.62;7.37;5.40;;;25.10;37.20;;;;;;2244459;61;20961;-57
2022/05/17 05:13:17;0.00;0.00;0.62;0.00;0.00;0.62;11.00;5.40;;;25.10;37.30;;;;;;2244707;61;20373;-59
2022/05/17 05:16:01;0.00;0.00;0.62;0.00;0.00;0.62;8.67;4.47;;;25.10;37.20;;;;;;2244484;61;20423;-55
2022/05/17 05:18:46;0.00;0.00;0.62;0.00;0.00;0.62;10.50;6.50;;;25.10;37.10;;;;;;2244687;61;20397;-59
2022/05/17 05:21:31;0.00;0.00;0.62;0.00;0.00;0.62;9.10;5.70;;;25.20;37.90;;;;;;2244542;61;20944;-56
2022/05/17 05:24:15;0.00;0.00;0.62;0.00;0.00;0.62;10.33;6.50;;;25.20;37.20;;;;;;2244677;61;20360;-58
2022/05/17 05:27:00;0.00;0.00;0.62;0.00;0.00;0.62;7.20;5.83;;;25.20;37.10;;;;;;2244703;61;20789;-61
2022/05/17 05:29:46;0.00;0.00;0.62;0.00;0.00;0.62;5.70;5.00;;;25.20;37.10;;;;;;2244512;61;20447;-56
2022/05/17 05:32:30;0.00;0.00;0.62;0.00;0.00;0.62;6.20;4.83;;;25.20;37.00;;;;;;2244269;61;20416;-56
2022/05/17 05:35:16;0.00;0.00;0.62;0.00;0.00;0.62;7.00;4.80;;;25.20;36.90;;;;;;2244497;61;20400;-66
2022/05/17 05:38:03;0.00;0.00;0.62;0.00;0.00;0.62;5.70;4.20;;;25.30;37.00;;;;;;2244251;61;20368;-67
2022/05/17 05:40:48;0.00;0.00;0.62;0.00;0.00;0.62;6.07;3.77;;;25.30;36.90;;;;;;2243891;61;20412;-66
2022/05/17 05:43:32;0.00;0.00;0.62;0.00;0.00;0.62;4.17;3.57;;;25.40;36.90;;;;;;2244666;61;20400;-64
2022/05/17 05:46:18;0.00;0.00;0.62;0.00;0.00;0.62;4.53;3.20;;;25.40;36.80;;;;;;2244525;61;20553;-66
2022/05/17 05:49:02;0.00;0.00;0.62;0.00;0.00;0.62;4.20;3.40;;;25.40;36.70;;;;;;2244324;61;20373;-68
2022/05/17 05:51:47;0.00;0.00;0.62;0.00;0.00;0.62;4.47;3.63;;;25.50;36.70;;;;;;2243890;61;20404;-66
2022/05/17 05:54:32;0.00;0.00;0.62;0.00;0.00;0.62;3.77;3.30;;;25.50;36.50;;;;;;2243344;61;20391;-66
2022/05/17 05:57:16;0.00;0.00;0.62;0.00;0.00;0.62;3.83;3.53;;;25.60;36.40;;;;;;2244254;61;20361;-66
2022/05/17 06:00:02;0.00;0.00;0.62;0.00;0.00;0.62;4.63;3.53;;;25.60;36.30;;;;;;2243965;61;20369;-65
2022/05/17 06:02:57;0.00;0.00;0.62;0.00;0.00;0.62;3.20;2.90;;;25.70;36.30;;;;;;2243997;61;20400;-66
2022/05/17 06:05:43;0.00;0.00;0.62;0.00;0.00;0.62;3.83;3.33;;;25.70;36.10;;;;;;2244072;61;20921;-67
2022/05/17 06:08:28;0.00;0.00;0.62;0.00;0.00;0.62;2.97;2.67;;;25.80;36.10;;;;;;2244274;61;20377;-70
2022/05/17 06:11:14;0.00;0.00;0.62;0.00;0.00;0.62;3.70;3.13;;;25.80;36.00;;;;;;2243947;61;20361;-61
2022/05/17 06:14:00;0.00;0.00;0.62;0.00;0.00;0.62;4.77;2.83;;;25.90;36.10;;;;;;2244315;61;20443;-67
2022/05/17 06:16:44;0.00;0.00;0.62;0.00;0.00;0.62;5.37;2.90;;;26.00;36.00;;;;;;2244299;61;20368;-67
2022/05/17 06:19:32;0.00;0.00;0.62;0.00;0.00;0.62;6.77;3.70;;;26.00;35.90;;;;;;2249309;61;20392;-64
2022/05/17 06:22:16;0.00;0.00;0.62;0.00;0.00;0.62;6.10;3.63;;;26.00;35.80;;;;;;2244081;61;20368;-65
2022/05/17 06:25:02;0.00;0.00;0.62;0.00;0.00;0.62;3.63;2.77;;;26.00;35.80;;;;;;2246297;61;20404;-64
2022/05/17 06:27:46;0.00;0.00;0.62;0.00;0.00;0.62;10.30;4.47;;;26.10;35.70;;;;;;2244606;61;20373;-71
2022/05/17 06:30:31;0.00;0.00;0.62;0.00;0.00;0.62;5.10;4.30;;;26.20;35.90;;;;;;2244353;61;20962;-62
2022/05/17 06:33:18;0.00;0.00;0.62;0.00;0.00;0.62;6.97;4.67;;;26.20;35.80;;;;;;2244511;61;20897;-59
2022/05/17 06:36:05;0.00;0.00;0.62;0.00;0.00;0.62;7.93;5.13;;;26.20;35.80;;;;;;2244206;61;21004;-61
2022/05/17 06:38:49;0.00;0.00;0.62;0.00;0.00;0.62;6.37;4.00;;;26.20;35.70;;;;;;2244250;61;20377;-65
2022/05/17 06:41:34;0.00;0.00;0.62;0.00;0.00;0.62;10.20;5.50;;;26.20;35.70;;;;;;2244365;61;20364;-68
2022/05/17 06:44:19;0.00;0.00;0.62;0.00;0.00;0.62;7.27;4.63;;;26.20;35.40;;;;;;2244501;61;20432;-67
2022/05/17 06:47:05;0.00;0.00;0.62;0.00;0.00;0.62;7.27;4.67;;;26.30;35.50;;;;;;2244939;61;20365;-66
2022/05/17 06:49:49;0.00;0.00;0.62;0.00;0.00;0.62;6.13;4.77;;;26.30;35.50;;;;;;2244586;61;20400;-66
2022/05/17 06:52:36;0.00;0.00;0.62;0.00;0.00;0.62;6.50;4.60;;;26.30;35.40;;;;;;2243809;61;20781;-57
2022/05/17 06:55:22;0.00;0.00;0.62;0.00;0.00;0.62;8.50;5.47;;;26.30;35.50;;;;;;2244074;61;20400;-61
2022/05/17 06:58:06;0.00;0.00;0.62;0.00;0.00;0.62;5.07;3.87;;;26.30;35.40;;;;;;2244358;61;20882;-62
2022/05/17 07:00:51;0.00;0.00;0.62;0.00;0.00;0.62;8.13;4.50;;;26.30;35.30;;;;;;2243776;61;20360;-62
2022/05/17 07:03:36;0.00;0.00;0.62;0.00;0.00;0.62;5.10;4.53;;;26.30;35.20;;;;;;2244519;61;20428;-64
2022/05/17 07:06:21;0.00;0.00;0.62;0.00;0.00;0.62;7.83;3.93;;;26.30;35.20;;;;;;2244034;61;20380;-65
2022/05/17 07:09:08;0.00;0.00;0.62;0.00;0.00;0.62;6.43;4.10;;;26.30;35.20;;;;;;2244078;61;20365;-64
2022/05/17 07:14:56;0.00;0.00;0.62;0.00;0.00;0.62;9.83;4.70;;;26.30;35.20;;;;;;2244749;61;20396;-65
2022/05/17 07:17:40;0.00;0.00;0.62;0.00;0.00;0.62;4.80;3.70;;;26.30;35.20;;;;;;2249812;61;20508;-65
2022/05/17 07:20:25;0.00;0.00;0.62;0.00;0.00;0.62;5.30;4.10;;;26.30;35.20;;;;;;2243770;61;20369;-58
2022/05/17 07:23:11;0.00;0.00;0.62;0.00;0.00;0.62;7.17;4.40;;;26.30;35.20;;;;;;2249241;61;20397;-54
2022/05/17 07:25:57;0.00;0.00;0.62;0.00;0.00;0.62;6.53;4.17;;;26.30;35.10;;;;;;2244562;61;20389;-58
2022/05/17 07:28:45;0.00;0.00;0.62;0.00;0.00;0.62;6.83;3.90;;;26.30;35.10;;;;;;2243910;61;20404;-52
2022/05/17 07:31:29;0.00;0.00;0.62;0.00;0.00;0.62;4.70;4.00;;;26.30;35.00;;;;;;2243580;61;20427;-57
2022/05/17 07:34:14;0.00;0.00;0.62;0.00;0.00;0.62;6.07;4.30;;;26.30;35.00;;;;;;2244662;61;20396;-56
2022/05/17 07:36:58;0.00;0.00;0.62;0.00;0.00;0.62;6.17;3.60;;;26.30;34.80;;;;;;2244115;61;20424;-58
2022/05/17 07:39:43;0.00;0.00;0.62;0.00;0.00;0.62;6.33;4.27;;;26.30;34.70;;;;;;2244385;61;20408;-63
2022/05/17 07:42:31;0.00;0.00;0.62;0.00;0.00;0.62;9.80;3.87;;;26.30;34.70;;;;;;2243811;61;20500;-63
2022/05/17 07:45:16;0.00;0.00;0.62;0.00;0.00;0.62;5.10;3.40;;;26.40;34.80;;;;;;2244180;61;20470;-68
2022/05/17 07:48:02;0.00;0.00;0.62;0.00;0.00;0.62;5.33;3.23;;;26.30;34.70;;;;;;2244266;61;20412;-62
2022/05/17 07:50:47;0.00;0.00;0.62;0.00;0.00;0.62;6.10;3.17;;;26.30;34.80;;;;;;2243390;61;20819;-64
2022/05/17 07:53:32;0.00;0.00;0.62;0.00;0.00;0.62;5.90;3.57;;;26.30;34.80;;;;;;2243567;61;20957;-63
2022/05/17 07:56:17;0.00;0.00;0.62;0.00;0.00;0.62;8.07;4.40;;;26.30;34.80;;;;;;2244312;61;20388;-56
2022/05/17 07:59:03;0.00;0.00;0.62;0.00;0.00;0.62;6.57;3.50;;;26.30;34.80;;;;;;2244204;61;20368;-68
2022/05/17 08:01:47;0.00;0.00;0.62;0.00;0.00;0.62;7.53;3.57;;;26.30;35.60;;;;;;2243539;61;20357;-66
2022/05/17 08:04:32;0.00;0.00;0.62;0.00;0.00;0.62;6.63;3.30;;;26.40;34.90;;;;;;2243829;61;20927;-62
2022/05/17 08:07:17;0.00;0.00;0.62;0.00;0.00;0.62;6.93;3.47;;;26.40;34.80;;;;;;2244660;61;20361;-63
2022/05/17 08:10:03;0.00;0.00;0.62;0.00;0.00;0.62;8.27;3.63;;;26.40;34.70;;;;;;2244044;61;20909;-60
2022/05/17 08:12:48;0.00;0.00;0.62;0.00;0.00;0.62;4.67;2.93;;;26.40;34.70;;;;;;2243927;61;20364;-55
2022/05/17 08:15:34;0.00;0.00;0.62;0.00;0.00;0.62;5.53;3.17;;;26.50;34.70;;;;;;2244380;61;20400;-65
2022/05/17 08:18:20;0.00;0.00;0.62;0.00;0.00;0.62;3.40;2.73;;;26.50;34.60;;;;;;2244568;61;20870;-66
2022/05/17 08:21:07;0.00;0.00;0.62;0.00;0.00;0.62;6.63;3.27;;;26.50;34.60;;;;;;2630746;46;20397;-64
2022/05/17 08:23:52;0.00;0.00;0.62;0.00;0.00;0.62;4.23;2.80;;;26.50;34.60;;;;;;2244029;61;20493;-65
2022/05/17 08:29:40;0.00;0.00;0.62;0.00;0.00;0.62;5.40;3.30;;;26.60;34.60;;;;;;2245310;61;20388;-67
2022/05/17 08:35:30;0.00;0.00;0.62;0.00;0.00;0.62;4.53;2.77;;;26.60;34.50;;;;;;2244305;61;20472;-67
2022/05/17 08:38:18;0.00;0.00;0.62;0.00;0.00;0.62;7.37;3.33;;;26.60;34.50;;;;;;2244758;61;20365;-65
2022/05/17 08:41:14;0.00;0.00;0.62;0.00;0.00;0.62;4.93;2.77;;;26.60;34.40;;;;;;2244347;61;20427;-65
2022/05/17 08:44:02;0.00;0.00;0.62;0.00;0.00;0.62;3.30;2.53;;;26.70;34.40;;;;;;2244838;61;20368;-56
2022/05/17 08:47:05;0.00;0.00;0.62;0.00;0.00;0.62;5.70;2.83;;;26.70;34.30;;;;;;2244617;61;20372;-57
2022/05/17 08:49:56;0.00;0.00;0.62;0.00;0.00;0.62;4.00;2.00;;;26.70;34.20;;;;;;2250326;61;20804;-59
2022/05/17 08:52:41;0.00;0.00;0.62;0.00;0.00;0.62;6.43;2.90;;;26.70;34.10;;;;;;2245244;61;20404;-62
2022/05/17 08:55:29;0.00;0.00;0.62;0.00;0.00;0.62;4.37;2.50;;;26.80;34.00;;;;;;2248958;61;20877;-67
2022/05/17 08:58:20;0.00;0.00;0.62;0.00;0.00;0.62;4.13;2.40;;;26.80;33.70;;;;;;2248895;61;20383;-66
2022/05/17 09:01:25;0.00;0.00;0.62;0.00;0.00;0.62;3.60;2.63;;;26.80;33.50;;;;;;2248606;61;20427;-66
2022/05/17 09:04:32;0.00;0.00;0.62;0.00;0.00;0.62;6.13;2.40;;;26.80;33.30;;;;;;2248762;61;20356;-66
2022/05/17 09:07:24;0.00;0.00;0.62;0.00;0.00;0.62;5.53;2.57;;;26.80;33.10;;;;;;2248793;61;20367;-64
2022/05/17 09:10:20;0.00;0.00;0.62;0.00;0.00;0.62;2.70;2.10;;;26.80;32.90;;;;;;2248487;61;20419;-66
2022/05/17 09:13:11;0.00;0.00;0.62;0.00;0.00;0.62;6.90;2.70;;;26.80;32.80;;;;;;2248721;61;20395;-59
2022/05/17 09:15:59;0.00;0.00;0.62;0.00;0.00;0.62;4.37;2.63;;;26.90;32.80;;;;;;2248595;61;20399;-57
2022/05/17 09:18:47;0.00;0.00;0.62;0.00;0.00;0.62;4.93;2.17;;;26.90;32.70;;;;;;2248428;61;20375;-60
2022/05/17 09:21:35;0.00;0.00;0.62;0.00;0.00;0.62;5.17;2.30;;;26.90;32.60;;;;;;2246053;61;20372;-65
2022/05/17 09:24:23;0.00;0.00;0.62;0.00;0.00;0.62;6.40;2.77;;;26.90;32.60;;;;;;2247183;61;20393;-59
2022/05/17 09:27:12;0.00;0.00;0.62;0.00;0.00;0.62;4.17;2.40;;;26.90;32.60;;;;;;2244488;61;20403;-58
2022/05/17 09:30:05;0.00;0.00;0.62;0.00;0.00;0.62;4.07;2.13;;;26.90;32.60;;;;;;2244330;61;20385;-64
2022/05/17 09:33:01;0.00;0.00;0.62;0.00;0.00;0.62;4.90;2.50;;;26.90;32.60;;;;;;2244594;61;20520;-59
2022/05/17 09:35:57;0.00;0.00;0.62;0.00;0.00;0.62;5.00;2.50;;;27.00;32.50;;;;;;2244327;61;20409;-57
2022/05/17 09:38:42;0.00;0.00;0.62;0.00;0.00;0.62;3.30;2.47;;;27.00;32.60;;;;;;2244634;61;20389;-58
2022/05/17 09:41:36;0.00;0.00;0.62;0.00;0.00;0.62;3.70;2.30;;;27.00;32.60;;;;;;2243998;61;20365;-59
2022/05/17 09:44:24;0.00;0.00;0.62;0.00;0.00;0.62;4.80;2.47;;;27.00;32.70;;;;;;2243858;61;20859;-60
2022/05/17 09:47:22;0.00;0.00;0.62;0.00;0.00;0.62;4.90;2.37;;;27.00;32.70;;;;;;2244627;61;20365;-59
2022/05/17 09:53:21;0.00;0.00;0.62;0.00;0.00;0.62;4.23;2.37;;;27.00;32.70;;;;;;2244525;61;20372;-59
2022/05/17 09:56:07;0.00;0.00;0.62;0.00;0.00;0.62;4.63;2.40;;;27.00;32.70;;;;;;2244256;61;20455;-60
2022/05/17 09:58:54;0.00;0.00;0.62;0.00;0.00;0.62;3.37;2.10;;;27.10;32.80;;;;;;2244210;61;20365;-58
2022/05/17 10:01:39;0.00;0.00;0.62;0.00;0.00;0.62;3.60;1.90;;;27.10;32.60;;;;;;2244632;61;20368;-60
2022/05/17 10:04:24;0.00;0.00;0.62;0.00;0.00;0.62;3.37;2.17;;;27.10;32.50;;;;;;2249463;61;20448;-59
2022/05/17 10:07:17;0.00;0.00;0.62;0.00;0.00;0.62;3.53;2.43;;;27.10;32.40;;;;;;2244430;61;20365;-59
2022/05/17 10:10:09;0.00;0.00;0.62;0.00;0.00;0.62;2.73;1.80;;;27.10;32.20;;;;;;2244863;61;20469;-60
2022/05/17 10:12:58;0.00;0.00;0.62;0.00;0.00;0.62;6.97;2.70;;;27.10;32.10;;;;;;2244285;61;20368;-59
2022/05/17 10:15:52;0.00;0.00;0.62;0.00;0.00;0.62;6.90;2.00;;;27.10;32.00;;;;;;2244392;61;20404;-59
2022/05/17 10:18:42;0.00;0.00;0.62;0.00;0.00;0.62;4.20;2.20;;;27.10;31.90;;;;;;2244281;61;20507;-60
2022/05/17 10:21:35;0.00;0.00;0.62;0.00;0.00;0.62;4.90;2.50;;;27.10;32.00;;;;;;2243880;61;20461;-61
2022/05/17 10:24:29;0.00;0.00;0.62;0.00;0.00;0.62;3.60;2.60;;;27.10;31.80;;;;;;2601749;46;20770;-59
2022/05/17 10:27:21;0.00;0.00;0.62;0.00;0.00;0.62;3.13;2.07;;;27.20;31.70;;;;;;2240060;61;20374;-59
2022/05/17 10:30:12;0.00;0.00;0.62;0.00;0.00;0.62;3.20;2.17;;;27.20;31.50;;;;;;2240538;61;20373;-57
2022/05/17 10:33:10;0.00;0.00;0.62;0.00;0.00;0.62;2.73;2.30;;;27.20;31.50;;;;;;2240301;61;20563;-59
2022/05/17 10:36:01;0.00;0.00;0.62;0.00;0.00;0.62;2.90;1.70;;;27.20;31.60;;;;;;2239955;61;20405;-58
2022/05/17 10:38:59;0.00;0.00;0.62;0.00;0.00;0.62;4.60;2.53;;;27.20;31.50;;;;;;2240829;61;20421;-59
2022/05/17 10:41:44;0.00;0.00;0.62;0.00;0.00;0.62;5.20;2.60;;;27.20;31.50;;;;;;2239728;61;20364;-58
2022/05/17 10:44:39;0.00;0.00;0.62;0.00;0.00;0.62;4.70;2.60;;;27.20;31.50;;;;;;2240499;61;20462;-59
2022/05/17 10:47:46;0.00;0.00;0.62;0.00;0.00;0.62;3.50;2.70;;;27.20;31.50;;;;;;2240132;61;20485;-57
2022/05/17 10:50:42;0.00;0.00;0.62;0.00;0.00;0.62;4.33;2.30;;;27.20;31.50;;;;;;2240163;61;20364;-58
2022/05/17 10:53:44;0.00;0.00;0.62;0.00;0.00;0.62;4.60;2.20;;;27.20;31.60;;;;;;2240350;61;20494;-60
2022/05/17 10:56:44;0.00;0.00;0.62;0.00;0.00;0.62;4.93;2.43;;;27.30;31.60;;;;;;2240579;61;20939;-58
2022/05/17 10:59:38;0.00;0.00;0.62;0.00;0.00;0.62;3.20;2.47;;;27.30;31.30;;;;;;2240433;61;20874;-59
2022/05/17 11:02:49;0.00;0.00;0.62;0.00;0.00;0.62;4.23;2.10;;;27.30;31.30;;;;;;2239977;61;20398;-58
2022/05/17 11:05:53;0.00;0.00;0.62;0.00;0.00;0.62;6.13;3.03;;;27.30;31.20;;;;;;2240343;61;20385;-58
2022/05/17 11:08:52;0.00;0.00;0.62;0.00;0.00;0.62;5.40;2.00;;;27.40;31.20;;;;;;2240770;61;20478;-55
2022/05/17 11:12:00;0.00;0.00;0.62;0.00;0.00;0.62;4.90;2.83;;;27.40;31.00;;;;;;2239783;61;20830;-60
2022/05/17 11:14:48;0.00;0.00;0.62;0.00;0.00;0.62;4.07;2.50;;;27.40;30.90;;;;;;2240393;61;20432;-57